createdAt,value
2018-09-09T00:00:30.866Z,7.87
2018-09-09T00:02:59.010Z,8.47
2018-09-09T00:05:27.154Z,7.07
2018-09-09T00:07:55.331Z,7.47
2018-09-09T00:10:23.732Z,7.37
2018-09-09T00:12:51.906Z,7.60
2018-09-09T00:15:20.090Z,8.87
2018-09-09T00:17:48.232Z,7.37
2018-09-09T00:20:16.419Z,8.67
2018-09-09T00:22:44.573Z,7.30
2018-09-09T00:25:12.786Z,7.57
2018-09-09T00:27:41.011Z,9.70
2018-09-09T00:30:09.128Z,8.13
2018-09-09T00:32:37.254Z,7.87
2018-09-09T00:35:05.423Z,7.10
2018-09-09T00:37:33.617Z,8.17
2018-09-09T00:40:01.810Z,7.70
2018-09-09T00:42:30.009Z,8.27
2018-09-09T00:44:58.218Z,7.63
2018-09-09T00:47:26.374Z,7.93
2018-09-09T00:49:59.914Z,7.97
2018-09-09T00:52:33.437Z,7.70
2018-09-09T00:55:01.614Z,9.23
2018-09-09T00:57:29.752Z,6.77
2018-09-09T00:59:57.896Z,6.90
2018-09-09T01:02:25.996Z,6.67
2018-09-09T01:04:54.277Z,6.40
2018-09-09T01:07:22.462Z,7.90
2018-09-09T01:09:50.662Z,6.70
2018-09-09T01:12:18.836Z,6.77
2018-09-09T01:14:47.036Z,7.77
2018-09-09T01:17:15.192Z,7.70
2018-09-09T01:19:43.356Z,9.00
2018-09-09T01:22:11.459Z,6.63
2018-09-09T01:24:39.594Z,8.53
2018-09-09T01:27:07.742Z,7.30
2018-09-09T01:29:35.988Z,7.63
2018-09-09T01:32:04.179Z,7.97
2018-09-09T01:34:32.346Z,7.17
2018-09-09T01:37:00.492Z,9.93
2018-09-09T01:39:28.642Z,9.27
2018-09-09T01:41:56.799Z,7.90
2018-09-09T01:44:24.977Z,7.67
2018-09-09T01:46:53.128Z,10.03
2018-09-09T01:49:21.283Z,7.57
2018-09-09T01:51:49.430Z,10.17
2018-09-09T01:54:17.498Z,8.53
2018-09-09T01:56:45.637Z,8.87
2018-09-09T01:59:13.782Z,7.87
2018-09-09T02:01:41.911Z,8.53
2018-09-09T02:04:10.060Z,9.43
2018-09-09T02:06:38.259Z,7.67
2018-09-09T02:09:06.440Z,11.30
2018-09-09T02:11:34.638Z,9.57
2018-09-09T02:14:02.881Z,9.77
2018-09-09T02:16:31.024Z,8.30
2018-09-09T02:18:59.204Z,7.90
2018-09-09T02:21:27.299Z,9.40
2018-09-09T02:23:55.455Z,9.17
2018-09-09T02:26:23.627Z,9.33
2018-09-09T02:28:51.812Z,8.13
2018-09-09T02:31:19.950Z,9.00
2018-09-09T02:33:48.118Z,9.53
2018-09-09T02:36:16.260Z,8.00
2018-09-09T02:38:44.435Z,9.13
2018-09-09T02:41:12.627Z,7.60
2018-09-09T02:43:40.901Z,8.43
2018-09-09T02:46:09.074Z,9.07
2018-09-09T02:48:37.235Z,7.73
2018-09-09T02:51:05.448Z,8.47
2018-09-09T02:53:33.566Z,11.77
2018-09-09T02:56:05.992Z,11.33
2018-09-09T02:58:34.110Z,11.30
2018-09-09T03:01:02.274Z,9.80
2018-09-09T03:03:30.461Z,9.47
2018-09-09T03:05:58.651Z,9.10
2018-09-09T03:08:26.771Z,12.10
2018-09-09T03:11:00.353Z,8.63
2018-09-09T03:13:28.649Z,8.40
2018-09-09T03:15:56.889Z,7.90
2018-09-09T03:18:25.081Z,8.33
2018-09-09T03:20:53.259Z,8.43
2018-09-09T03:23:21.373Z,8.63
2018-09-09T03:25:49.568Z,7.50
2018-09-09T03:28:17.748Z,10.43
2018-09-09T03:30:45.924Z,7.43
2018-09-09T03:33:14.092Z,10.07
2018-09-09T03:35:42.293Z,7.23
2018-09-09T03:38:10.524Z,7.53
2018-09-09T03:40:38.746Z,8.40
2018-09-09T03:43:06.900Z,7.87
2018-09-09T03:45:35.130Z,7.73
2018-09-09T03:48:03.261Z,8.53
2018-09-09T03:50:31.435Z,7.97
2018-09-09T03:52:59.590Z,7.60
2018-09-09T03:55:27.777Z,9.30
2018-09-09T03:57:55.986Z,8.60
2018-09-09T04:00:24.156Z,8.07
2018-09-09T04:02:52.354Z,6.50
2018-09-09T04:05:20.581Z,7.67
2018-09-09T04:07:48.760Z,8.70
2018-09-09T04:10:16.996Z,7.60
2018-09-09T04:12:45.144Z,7.73
2018-09-09T04:15:13.351Z,7.40
2018-09-09T04:17:41.530Z,7.53
2018-09-09T04:20:09.736Z,7.90
2018-09-09T04:22:37.924Z,8.70
2018-09-09T04:25:06.216Z,18.87
2018-09-09T04:27:34.414Z,8.17
2018-09-09T04:30:02.590Z,6.97
2018-09-09T04:32:30.762Z,9.17
2018-09-09T04:34:58.999Z,9.73
2018-09-09T04:37:27.188Z,7.87
2018-09-09T04:39:55.384Z,10.33
2018-09-09T04:42:23.608Z,9.40
2018-09-09T04:44:51.820Z,8.77
2018-09-09T04:47:20.076Z,10.37
2018-09-09T04:49:48.234Z,9.73
2018-09-09T04:52:16.408Z,11.37
2018-09-09T04:54:44.578Z,9.00
2018-09-09T04:57:12.804Z,9.57
2018-09-09T04:59:40.984Z,11.07
2018-09-09T05:02:09.118Z,9.50
2018-09-09T05:04:37.448Z,10.20
2018-09-09T05:07:05.678Z,12.53
2018-09-09T05:09:33.889Z,10.43
2018-09-09T05:12:02.115Z,10.13
2018-09-09T05:14:30.294Z,8.90
2018-09-09T05:16:58.747Z,7.80
2018-09-09T05:19:27.099Z,10.53
2018-09-09T05:21:55.316Z,9.33
2018-09-09T05:24:23.561Z,9.67
2018-09-09T05:26:51.778Z,8.63
2018-09-09T05:29:20.370Z,8.20
2018-09-09T05:31:48.539Z,9.63
2018-09-09T05:34:16.721Z,9.40
2018-09-09T05:36:44.988Z,10.30
2018-09-09T05:39:13.123Z,8.77
2018-09-09T05:41:41.329Z,10.20
2018-09-09T05:44:09.456Z,9.27
2018-09-09T05:46:37.612Z,9.10
2018-09-09T05:49:05.765Z,8.67
2018-09-09T05:51:33.904Z,8.40
2018-09-09T05:54:02.090Z,9.07
2018-09-09T05:56:30.225Z,8.20
2018-09-09T05:58:58.334Z,8.47
2018-09-09T06:01:26.499Z,7.40
2018-09-09T06:03:54.716Z,6.50
2018-09-09T06:06:22.831Z,6.33
2018-09-09T06:08:50.949Z,6.30
2018-09-09T06:11:19.130Z,5.30
2018-09-09T06:13:48.096Z,7.40
2018-09-09T06:16:16.197Z,5.93
2018-09-09T06:18:44.371Z,6.10
2018-09-09T06:21:12.590Z,7.37
2018-09-09T06:23:40.750Z,5.50
2018-09-09T06:26:08.967Z,5.77
2018-09-09T06:28:37.098Z,5.83
2018-09-09T06:31:05.286Z,5.70
2018-09-09T06:33:34.455Z,4.87
2018-09-09T06:36:02.627Z,5.93
2018-09-09T06:38:30.859Z,5.77
2018-09-09T06:40:58.991Z,7.37
2018-09-09T06:43:27.143Z,6.40
2018-09-09T06:45:55.347Z,5.90
2018-09-09T06:48:23.565Z,6.30
2018-09-09T06:50:51.837Z,6.10
2018-09-09T06:53:20.109Z,5.60
2018-09-09T06:55:48.261Z,6.03
2018-09-09T06:58:16.391Z,5.93
2018-09-09T07:00:44.561Z,6.73
2018-09-09T07:03:12.698Z,6.27
2018-09-09T07:05:40.850Z,4.90
2018-09-09T07:08:09.050Z,6.00
2018-09-09T07:10:37.187Z,5.17
2018-09-09T07:13:05.316Z,5.97
2018-09-09T07:15:33.526Z,5.30
2018-09-09T07:18:01.699Z,5.92
2018-09-09T07:20:29.874Z,6.55
2018-09-09T07:22:58.000Z,5.35
2018-09-09T07:25:26.138Z,5.42
2018-09-09T07:27:54.369Z,5.72
2018-09-09T07:30:22.594Z,6.17
2018-09-09T07:32:50.716Z,6.60
2018-09-09T07:35:18.866Z,8.53
2018-09-09T07:37:47.037Z,7.50
2018-09-09T07:40:15.296Z,7.83
2018-09-09T07:42:43.550Z,8.87
2018-09-09T07:45:11.738Z,7.67
2018-09-09T07:47:39.897Z,8.87
2018-09-09T07:50:08.083Z,7.00
2018-09-09T07:52:36.280Z,7.70
2018-09-09T07:55:04.556Z,7.63
2018-09-09T07:57:32.744Z,6.77
2018-09-09T08:00:00.930Z,8.00
2018-09-09T08:02:29.161Z,6.47
2018-09-09T08:04:57.324Z,6.70
2018-09-09T08:07:25.566Z,7.07
2018-09-09T08:09:53.715Z,6.67
2018-09-09T08:12:21.912Z,7.90
2018-09-09T08:14:50.026Z,6.47
2018-09-09T08:17:18.156Z,6.40
2018-09-09T08:19:46.318Z,8.43
2018-09-09T08:22:14.465Z,7.30
2018-09-09T08:24:42.617Z,7.00
2018-09-09T08:27:10.839Z,8.43
2018-09-09T08:29:39.358Z,7.67
2018-09-09T08:32:07.533Z,7.13
2018-09-09T08:34:35.711Z,8.67
2018-09-09T08:37:03.917Z,7.13
2018-09-09T08:39:32.090Z,7.70
2018-09-09T08:42:00.293Z,9.37
2018-09-09T08:44:28.457Z,8.57
2018-09-09T08:46:56.597Z,8.67
2018-09-09T08:49:24.792Z,7.80
2018-09-09T08:51:53.015Z,10.00
2018-09-09T08:54:21.151Z,9.33
2018-09-09T08:56:49.404Z,8.47
2018-09-09T08:59:17.804Z,9.47
2018-09-09T09:01:45.956Z,8.57
2018-09-09T09:04:14.150Z,8.80
2018-09-09T09:06:42.236Z,9.23
2018-09-09T09:09:10.992Z,9.43
2018-09-09T09:11:39.176Z,8.17
2018-09-09T09:14:07.328Z,8.30
2018-09-09T09:16:35.535Z,10.60
2018-09-09T09:19:03.784Z,10.83
2018-09-09T09:21:31.949Z,9.87
2018-09-09T09:24:00.129Z,9.43
2018-09-09T09:26:28.322Z,11.63
2018-09-09T09:28:56.472Z,10.37
2018-09-09T09:31:24.632Z,11.27
2018-09-09T09:33:52.829Z,11.73
2018-09-09T09:36:20.978Z,10.37
2018-09-09T09:38:49.181Z,10.90
2018-09-09T09:41:18.092Z,11.07
2018-09-09T09:43:50.620Z,13.70
2018-09-09T09:46:19.083Z,10.40
2018-09-09T09:48:47.437Z,10.97
2018-09-09T09:51:15.658Z,12.67
2018-09-09T09:53:43.840Z,13.13
2018-09-09T09:56:12.058Z,9.33
2018-09-09T09:58:40.184Z,11.93
2018-09-09T10:01:08.415Z,12.10
2018-09-09T10:03:36.619Z,12.23
2018-09-09T10:06:04.800Z,12.23
2018-09-09T10:08:32.980Z,12.27
2018-09-09T10:11:01.232Z,9.83
2018-09-09T10:13:30.218Z,10.33
2018-09-09T10:15:58.400Z,9.80
2018-09-09T10:18:26.667Z,10.77
2018-09-09T10:20:54.804Z,12.23
2018-09-09T10:23:22.997Z,9.60
2018-09-09T10:25:51.228Z,8.03
2018-09-09T10:28:19.376Z,8.33
2018-09-09T10:30:47.591Z,11.10
2018-09-09T10:33:15.724Z,8.83
2018-09-09T10:35:44.332Z,7.87
2018-09-09T10:38:12.503Z,8.60
2018-09-09T10:40:40.638Z,7.43
2018-09-09T10:43:08.789Z,9.50
2018-09-09T10:45:36.959Z,9.90
2018-09-09T10:48:05.093Z,7.20
2018-09-09T10:50:33.292Z,6.37
2018-09-09T10:53:01.535Z,7.70
2018-09-09T10:55:29.734Z,6.57
2018-09-09T10:57:58.032Z,6.77
2018-09-09T11:00:26.830Z,6.93
2018-09-09T11:02:54.938Z,5.80
2018-09-09T11:05:23.034Z,9.33
2018-09-09T11:07:51.470Z,5.97
2018-09-09T11:10:21.677Z,7.10
2018-09-09T11:12:49.876Z,6.93
2018-09-09T11:15:18.176Z,5.97
2018-09-09T11:17:46.300Z,5.60
2018-09-09T11:20:14.497Z,8.07
2018-09-09T11:22:42.648Z,4.93
2018-09-09T11:25:10.931Z,5.77
2018-09-09T11:27:39.056Z,6.90
2018-09-09T11:30:07.335Z,5.50
2018-09-09T11:32:35.551Z,4.53
2018-09-09T11:35:03.789Z,4.13
2018-09-09T11:37:31.900Z,3.33
2018-09-09T11:40:00.034Z,4.00
2018-09-09T11:42:28.158Z,3.80
2018-09-09T11:44:56.297Z,4.03
2018-09-09T11:47:24.454Z,4.00
2018-09-09T11:49:52.596Z,5.77
2018-09-09T11:52:20.798Z,4.60
2018-09-09T11:54:49.016Z,4.93
2018-09-09T11:57:17.167Z,4.70
2018-09-09T11:59:45.336Z,4.13
2018-09-09T12:02:13.462Z,4.80
2018-09-09T12:04:41.664Z,3.93
2018-09-09T12:07:09.824Z,3.70
2018-09-09T12:09:37.960Z,3.63
2018-09-09T12:12:06.106Z,3.53
2018-09-09T12:14:34.238Z,3.57
2018-09-09T12:17:02.371Z,3.50
2018-09-09T12:19:31.425Z,3.80
2018-09-09T12:21:59.629Z,3.60
2018-09-09T12:24:27.751Z,3.53
2018-09-09T12:26:56.333Z,3.43
2018-09-09T12:29:24.531Z,4.30
2018-09-09T12:31:52.673Z,3.00
2018-09-09T12:34:20.810Z,3.80
2018-09-09T12:36:48.945Z,3.40
2018-09-09T12:39:17.105Z,3.90
2018-09-09T12:41:45.254Z,2.00
2018-09-09T12:44:18.668Z,2.57
2018-09-09T12:46:52.336Z,2.93
2018-09-09T12:49:20.548Z,2.40
2018-09-09T12:51:48.727Z,2.43
2018-09-09T12:54:16.844Z,2.73
2018-09-09T12:56:45.068Z,2.87
2018-09-09T12:59:13.263Z,1.97
2018-09-09T13:01:41.429Z,2.77
2018-09-09T13:04:09.601Z,2.90
2018-09-09T13:06:37.755Z,3.07
2018-09-09T13:09:06.812Z,2.77
2018-09-09T13:11:34.984Z,2.70
2018-09-09T13:14:03.144Z,2.43
2018-09-09T13:16:31.356Z,3.53
2018-09-09T13:18:59.491Z,3.30
2018-09-09T13:21:27.651Z,2.30
2018-09-09T13:23:55.797Z,3.80
2018-09-09T13:26:24.057Z,2.77
2018-09-09T13:28:52.165Z,6.57
2018-09-09T13:31:20.364Z,2.63
2018-09-09T13:33:48.579Z,3.30
2018-09-09T13:36:16.813Z,3.73
2018-09-09T13:38:44.968Z,2.93
2018-09-09T13:41:13.128Z,3.07
2018-09-09T13:43:41.286Z,3.07
2018-09-09T13:46:09.440Z,3.00
2018-09-09T13:48:37.590Z,3.50
2018-09-09T13:51:05.754Z,2.67
2018-09-09T13:53:34.194Z,3.20
2018-09-09T13:56:02.357Z,2.70
2018-09-09T13:58:30.494Z,2.63
2018-09-09T14:00:58.628Z,3.50
2018-09-09T14:03:26.780Z,3.97
2018-09-09T14:05:54.978Z,3.47
2018-09-09T14:08:23.128Z,5.60
2018-09-09T14:10:51.301Z,3.20
2018-09-09T14:13:19.485Z,2.80
2018-09-09T14:15:47.648Z,2.80
2018-09-09T14:18:15.801Z,3.20
2018-09-09T14:20:43.981Z,3.30
2018-09-09T14:23:12.114Z,2.70
2018-09-09T14:25:40.272Z,2.70
2018-09-09T14:28:08.481Z,2.60
2018-09-09T14:30:36.612Z,2.93
2018-09-09T14:33:04.804Z,2.97
2018-09-09T14:35:32.894Z,4.37
2018-09-09T14:38:01.049Z,2.50
2018-09-09T14:40:29.156Z,2.53
2018-09-09T14:42:57.308Z,2.60
2018-09-09T14:45:25.474Z,2.70
2018-09-09T14:47:53.618Z,2.60
2018-09-09T14:50:21.776Z,2.77
2018-09-09T14:52:49.885Z,3.03
2018-09-09T14:55:18.020Z,3.17
2018-09-09T14:57:46.936Z,3.17
2018-09-09T15:00:15.257Z,2.90
2018-09-09T15:02:43.762Z,1.90
2018-09-09T15:05:12.015Z,4.67
2018-09-09T15:07:40.264Z,1.90
2018-09-09T15:10:08.444Z,2.27
2018-09-09T15:12:36.599Z,1.77
2018-09-09T15:15:04.845Z,2.43
2018-09-09T15:17:33.063Z,2.07
2018-09-09T15:20:01.241Z,1.97
2018-09-09T15:22:30.024Z,1.57
2018-09-09T15:24:58.162Z,2.13
2018-09-09T15:27:26.639Z,2.13
2018-09-09T15:29:54.770Z,2.40
2018-09-09T15:32:22.908Z,1.77
2018-09-09T15:34:51.015Z,3.43
2018-09-09T15:37:19.143Z,1.70
2018-09-09T15:39:47.290Z,2.87
2018-09-09T15:42:15.654Z,2.10
2018-09-09T15:44:43.783Z,2.97
2018-09-09T15:47:11.919Z,3.53
2018-09-09T15:49:40.043Z,2.33
2018-09-09T15:52:08.316Z,2.50
2018-09-09T15:54:36.396Z,2.37
2018-09-09T15:57:04.598Z,1.93
2018-09-09T15:59:32.695Z,1.90
2018-09-09T16:02:00.819Z,2.10
2018-09-09T16:04:29.290Z,1.73
2018-09-09T16:06:57.451Z,2.00
2018-09-09T16:09:25.513Z,2.23
2018-09-09T16:11:53.727Z,3.83
2018-09-09T16:14:21.738Z,1.90
2018-09-09T16:16:49.893Z,2.00
2018-09-09T16:19:17.994Z,1.80
2018-09-09T16:21:46.162Z,1.90
2018-09-09T16:24:14.351Z,1.97
2018-09-09T16:26:42.393Z,2.97
2018-09-09T16:29:10.501Z,1.73
2018-09-09T16:31:38.725Z,1.67
2018-09-09T16:34:06.819Z,3.17
2018-09-09T16:36:35.176Z,2.80
2018-09-09T16:39:03.448Z,1.73
2018-09-09T16:41:31.639Z,2.00
2018-09-09T16:43:59.737Z,1.70
2018-09-09T16:46:27.945Z,2.10
2018-09-09T16:48:56.126Z,2.17
2018-09-09T16:51:24.264Z,2.00
2018-09-09T16:53:52.554Z,2.33
2018-09-09T16:56:20.812Z,1.70
2018-09-09T16:58:48.949Z,1.80
2018-09-09T17:01:17.158Z,1.63
2018-09-09T17:03:45.307Z,1.60
2018-09-09T17:06:13.478Z,2.00
2018-09-09T17:08:41.607Z,1.87
2018-09-09T17:11:09.728Z,2.53
2018-09-09T17:13:37.936Z,3.10
2018-09-09T17:16:06.097Z,1.93
2018-09-09T17:18:34.352Z,2.17
2018-09-09T17:21:02.591Z,3.87
2018-09-09T17:23:30.823Z,1.70
2018-09-09T17:25:59.028Z,2.20
2018-09-09T17:28:27.280Z,3.27
2018-09-09T17:30:55.434Z,3.23
2018-09-09T17:33:23.626Z,2.40
2018-09-09T17:35:51.781Z,4.07
2018-09-09T17:38:20.699Z,2.10
2018-09-09T17:40:48.899Z,2.10
2018-09-09T17:43:17.091Z,5.63
2018-09-09T17:45:45.216Z,3.03
2018-09-09T17:48:13.382Z,2.17
2018-09-09T17:50:41.592Z,2.87
2018-09-09T17:53:09.743Z,2.27
2018-09-09T17:55:37.882Z,2.23
2018-09-09T17:58:06.072Z,3.60
2018-09-09T18:00:34.234Z,2.37
2018-09-09T18:03:02.403Z,3.37
2018-09-09T18:05:30.600Z,2.40
2018-09-09T18:07:58.828Z,3.27
2018-09-09T18:10:27.105Z,2.80
2018-09-09T18:12:55.317Z,3.07
2018-09-09T18:15:23.556Z,2.53
2018-09-09T18:17:51.794Z,2.23
2018-09-09T18:20:20.108Z,2.20
2018-09-09T18:22:48.228Z,3.00
2018-09-09T18:25:16.462Z,3.33
2018-09-09T18:27:44.670Z,3.33
2018-09-09T18:30:12.888Z,3.17
2018-09-09T18:32:41.107Z,3.43
2018-09-09T18:35:09.314Z,2.43
2018-09-09T18:37:37.492Z,2.30
2018-09-09T18:40:06.155Z,2.90
2018-09-09T18:42:34.410Z,3.17
2018-09-09T18:45:02.652Z,2.40
2018-09-09T18:47:31.157Z,2.63
2018-09-09T18:49:59.302Z,3.77
2018-09-09T18:52:27.482Z,3.87
2018-09-09T18:54:55.640Z,3.63
2018-09-09T18:57:24.586Z,4.20
2018-09-09T18:59:52.992Z,3.23
2018-09-09T19:02:21.240Z,3.23
2018-09-09T19:04:49.380Z,3.70
2018-09-09T19:07:17.583Z,3.50
2018-09-09T19:09:45.758Z,3.50
2018-09-09T19:12:13.949Z,2.97
2018-09-09T19:14:42.101Z,3.30
2018-09-09T19:17:11.211Z,3.87
2018-09-09T19:19:39.350Z,2.73
2018-09-09T19:22:07.570Z,3.77
2018-09-09T19:24:37.625Z,4.40
2018-09-09T19:27:06.075Z,2.63
2018-09-09T19:29:34.372Z,3.20
2018-09-09T19:32:02.651Z,2.80
2018-09-09T19:34:30.891Z,3.13
2018-09-09T19:36:59.053Z,3.50
2018-09-09T19:39:27.228Z,2.93
2018-09-09T19:41:55.383Z,3.57
2018-09-09T19:44:23.553Z,3.07
2018-09-09T19:46:51.758Z,2.57
2018-09-09T19:49:19.963Z,2.20
2018-09-09T19:51:48.158Z,3.43
2018-09-09T19:54:16.345Z,4.67
2018-09-09T19:56:44.540Z,3.60
2018-09-09T19:59:12.766Z,2.57
2018-09-09T20:01:41.535Z,3.13
2018-09-09T20:04:10.031Z,2.80
2018-09-09T20:06:38.401Z,2.93
2018-09-09T20:09:06.917Z,2.50
2018-09-09T20:11:35.140Z,4.10
2018-09-09T20:14:03.479Z,4.33
2018-09-09T20:16:31.626Z,3.03
2018-09-09T20:19:00.704Z,4.13
2018-09-09T20:21:29.493Z,2.77
2018-09-09T20:23:57.684Z,4.67
2018-09-09T20:26:25.907Z,3.27
2018-09-09T20:28:54.177Z,3.03
2018-09-09T20:31:22.386Z,3.13
2018-09-09T20:33:50.531Z,3.23
2018-09-09T20:36:18.711Z,3.23
2018-09-09T20:38:46.894Z,2.83
2018-09-09T20:41:15.094Z,3.07
2018-09-09T20:43:43.238Z,3.53
2018-09-09T20:46:11.448Z,2.83
2018-09-09T20:48:39.772Z,3.67
2018-09-09T20:51:07.906Z,3.67
2018-09-09T20:53:36.115Z,4.30
2018-09-09T20:56:04.299Z,3.93
2018-09-09T20:58:32.428Z,4.80
2018-09-09T21:01:00.619Z,3.53
2018-09-09T21:03:28.765Z,3.63
2018-09-09T21:05:56.887Z,3.47
2018-09-09T21:08:25.085Z,4.20
2018-09-09T21:10:53.353Z,3.63
2018-09-09T21:13:21.625Z,5.00
2018-09-09T21:15:49.880Z,3.53
2018-09-09T21:18:18.093Z,4.30
2018-09-09T21:20:46.258Z,5.37
2018-09-09T21:23:14.451Z,3.83
2018-09-09T21:25:42.594Z,4.00
2018-09-09T21:28:10.812Z,4.63
2018-09-09T21:30:38.934Z,5.60
2018-09-09T21:33:07.099Z,5.67
2018-09-09T21:35:35.222Z,3.30
2018-09-09T21:38:03.372Z,4.63
2018-09-09T21:40:31.573Z,3.67
2018-09-09T21:42:59.731Z,4.47
2018-09-09T21:45:27.953Z,4.13
2018-09-09T21:47:56.175Z,8.67
2018-09-09T21:50:24.321Z,4.17
2018-09-09T21:52:52.551Z,4.03
2018-09-09T21:55:20.785Z,4.70
2018-09-09T21:57:48.892Z,4.03
2018-09-09T22:00:17.057Z,4.10
2018-09-09T22:02:45.234Z,3.57
2018-09-09T22:05:13.384Z,3.57
2018-09-09T22:07:41.581Z,5.33
2018-09-09T22:10:09.715Z,5.43
2018-09-09T22:12:37.883Z,4.23
2018-09-09T22:15:06.050Z,5.23
2018-09-09T22:17:34.241Z,4.67
2018-09-09T22:20:02.389Z,4.67
2018-09-09T22:22:30.525Z,6.10
2018-09-09T22:24:58.665Z,4.03
2018-09-09T22:27:26.850Z,3.73
2018-09-09T22:29:54.996Z,4.53
2018-09-09T22:32:23.142Z,5.53
2018-09-09T22:34:51.290Z,5.23
2018-09-09T22:37:19.439Z,4.90
2018-09-09T22:39:47.575Z,4.13
2018-09-09T22:42:15.726Z,4.30
2018-09-09T22:44:43.877Z,4.50
2018-09-09T22:47:12.077Z,6.60
2018-09-09T22:49:40.232Z,4.97
2018-09-09T22:52:08.340Z,4.17
2018-09-09T22:54:36.489Z,3.33
2018-09-09T22:57:04.650Z,4.40
2018-09-09T22:59:32.794Z,4.50
2018-09-09T23:02:00.955Z,4.27
2018-09-09T23:04:29.419Z,4.33
2018-09-09T23:06:57.579Z,6.27
2018-09-09T23:09:25.770Z,4.57
2018-09-09T23:11:54.112Z,4.40
2018-09-09T23:14:22.250Z,3.50
2018-09-09T23:16:50.416Z,3.47
2018-09-09T23:19:18.603Z,3.93
2018-09-09T23:21:46.768Z,4.43
2018-09-09T23:24:14.977Z,3.30
2018-09-09T23:26:43.084Z,5.10
2018-09-09T23:29:11.229Z,4.03
2018-09-09T23:31:39.396Z,3.50
2018-09-09T23:34:07.562Z,4.63
2018-09-09T23:36:35.692Z,3.60
2018-09-09T23:39:04.668Z,4.30
2018-09-09T23:41:32.757Z,7.13
2018-09-09T23:44:00.927Z,4.27
2018-09-09T23:46:29.140Z,3.57
2018-09-09T23:48:57.320Z,5.90
2018-09-09T23:51:25.538Z,4.33
2018-09-09T23:53:53.740Z,4.73
2018-09-09T23:56:21.958Z,3.33
2018-09-09T23:58:50.090Z,5.47
